createdAt,value
2023-03-06T00:00:57.099Z,4.68
2023-03-06T00:01:59.461Z,4.68
2023-03-06T00:03:01.927Z,4.67
2023-03-06T00:04:04.453Z,4.67
2023-03-06T00:05:07.238Z,4.67
2023-03-06T00:06:09.660Z,4.67
2023-03-06T00:07:12.048Z,4.67
2023-03-06T00:08:14.596Z,4.68
2023-03-06T00:09:17.008Z,4.68
2023-03-06T00:10:22.473Z,4.69
2023-03-06T00:11:24.881Z,4.69
2023-03-06T00:12:27.709Z,4.70
2023-03-06T00:13:31.222Z,4.69
2023-03-06T00:14:33.636Z,4.69
2023-03-06T00:15:36.053Z,4.69
2023-03-06T00:16:38.513Z,4.68
2023-03-06T00:17:41.099Z,4.68
2023-03-06T00:18:44.142Z,4.68
2023-03-06T00:19:46.515Z,4.69
2023-03-06T00:20:48.847Z,4.69
2023-03-06T00:21:54.760Z,4.69
2023-03-06T00:22:57.756Z,4.70
2023-03-06T00:24:00.137Z,4.71
2023-03-06T00:25:02.585Z,4.71
2023-03-06T00:26:08.412Z,4.72
2023-03-06T00:27:10.805Z,4.73
2023-03-06T00:28:14.962Z,4.74
2023-03-06T00:29:17.562Z,4.74
2023-03-06T00:30:22.644Z,4.74
2023-03-06T00:31:25.042Z,4.75
2023-03-06T00:32:28.746Z,4.75
2023-03-06T00:33:31.319Z,4.76
2023-03-06T00:34:33.648Z,4.76
2023-03-06T00:35:38.904Z,4.76
2023-03-06T00:36:41.803Z,4.76
2023-03-06T00:37:44.541Z,4.77
2023-03-06T00:38:46.874Z,4.77
2023-03-06T00:39:49.710Z,4.76
2023-03-06T00:40:52.078Z,4.77
2023-03-06T00:41:55.666Z,4.77
2023-03-06T00:42:57.988Z,4.77
2023-03-06T00:44:00.309Z,4.77
2023-03-06T00:45:03.015Z,4.77
2023-03-06T00:46:05.962Z,4.78
2023-03-06T00:47:08.553Z,4.78
2023-03-06T00:48:10.884Z,4.77
2023-03-06T00:49:13.209Z,4.77
2023-03-06T00:50:15.604Z,4.77
2023-03-06T00:51:19.834Z,4.77
2023-03-06T00:52:22.170Z,4.77
2023-03-06T00:53:24.502Z,4.76
2023-03-06T00:54:26.821Z,4.76
2023-03-06T00:55:30.933Z,4.77
2023-03-06T00:56:33.344Z,4.77
2023-03-06T00:57:35.690Z,4.78
2023-03-06T00:58:37.993Z,4.78
2023-03-06T00:59:40.546Z,4.78
2023-03-06T01:00:43.906Z,4.78
2023-03-06T01:01:46.427Z,4.78
2023-03-06T01:02:48.827Z,4.78
2023-03-06T01:03:51.238Z,4.78
2023-03-06T01:04:53.658Z,4.78
2023-03-06T01:05:56.033Z,4.78
2023-03-06T01:06:58.440Z,4.78
2023-03-06T01:08:00.963Z,4.78
2023-03-06T01:09:04.537Z,4.79
2023-03-06T01:10:08.184Z,4.79
2023-03-06T01:11:10.651Z,4.79
2023-03-06T01:12:13.070Z,4.80
2023-03-06T01:13:15.437Z,4.80
2023-03-06T01:14:19.458Z,4.80
2023-03-06T01:15:22.729Z,4.80
2023-03-06T01:16:25.289Z,4.81
2023-03-06T01:17:27.727Z,4.81
2023-03-06T01:18:30.135Z,4.81
2023-03-06T01:19:32.478Z,4.82
2023-03-06T01:20:34.906Z,4.81
2023-03-06T01:21:37.240Z,4.81
2023-03-06T01:22:39.635Z,4.82
2023-03-06T01:23:42.157Z,4.82
2023-03-06T01:24:44.597Z,4.82
2023-03-06T01:25:47.027Z,4.83
2023-03-06T01:26:49.708Z,4.83
2023-03-06T01:27:53.087Z,4.83
2023-03-06T01:28:57.494Z,4.84
2023-03-06T01:29:59.825Z,4.84
2023-03-06T01:31:02.216Z,4.84
2023-03-06T01:32:04.947Z,4.84
2023-03-06T01:33:07.362Z,4.84
2023-03-06T01:34:09.745Z,4.84
2023-03-06T01:35:12.982Z,4.84
2023-03-06T01:36:15.498Z,4.84
2023-03-06T01:37:17.896Z,4.84
2023-03-06T01:38:20.348Z,4.84
2023-03-06T01:39:22.661Z,4.84
2023-03-06T01:40:24.998Z,4.84
2023-03-06T01:41:27.471Z,4.84
2023-03-06T01:42:31.999Z,4.84
2023-03-06T01:43:39.668Z,4.84
2023-03-06T01:45:06.746Z,4.84
2023-03-06T01:46:35.420Z,4.84
2023-03-06T01:47:37.805Z,4.84
2023-03-06T01:48:40.246Z,4.84
2023-03-06T01:49:42.653Z,4.84
2023-03-06T01:50:45.059Z,4.84
2023-03-06T01:51:57.462Z,4.83
2023-03-06T01:53:01.159Z,4.83
2023-03-06T01:54:09.084Z,4.83
2023-03-06T01:55:16.421Z,4.83
2023-03-06T01:56:19.489Z,4.83
2023-03-06T01:57:30.980Z,4.82
2023-03-06T01:58:33.488Z,4.82
2023-03-06T01:59:38.517Z,4.81
2023-03-06T02:00:40.911Z,4.82
2023-03-06T02:01:44.429Z,4.82
2023-03-06T02:03:14.320Z,4.82
2023-03-06T02:04:17.718Z,4.82
2023-03-06T02:05:20.340Z,4.81
2023-03-06T02:06:22.764Z,4.81
2023-03-06T02:07:25.212Z,4.81
2023-03-06T02:08:28.913Z,4.81
2023-03-06T02:09:32.840Z,4.81
2023-03-06T02:10:35.562Z,4.81
2023-03-06T02:11:38.047Z,4.80
2023-03-06T02:12:43.751Z,4.80
2023-03-06T02:13:47.220Z,4.80
2023-03-06T02:14:50.241Z,4.80
2023-03-06T02:15:52.629Z,4.80
2023-03-06T02:16:55.067Z,4.81
2023-03-06T02:17:57.638Z,4.80
2023-03-06T02:19:02.417Z,4.80
2023-03-06T02:20:04.743Z,4.80
2023-03-06T02:21:10.153Z,4.80
2023-03-06T02:22:12.640Z,4.80
2023-03-06T02:23:41.373Z,4.80
2023-03-06T02:24:52.216Z,4.79
2023-03-06T02:25:54.696Z,4.79
2023-03-06T02:26:59.933Z,4.78
2023-03-06T02:28:02.350Z,4.78
2023-03-06T02:29:05.145Z,4.77
2023-03-06T02:30:08.738Z,4.77
2023-03-06T02:31:22.481Z,4.78
2023-03-06T02:32:24.870Z,4.78
2023-03-06T02:33:29.317Z,4.78
2023-03-06T02:34:53.758Z,4.77
2023-03-06T02:35:59.493Z,4.77
2023-03-06T02:37:05.644Z,4.76
2023-03-06T02:38:11.740Z,4.77
2023-03-06T02:39:16.040Z,4.77
2023-03-06T02:40:21.181Z,4.76
2023-03-06T02:41:23.549Z,4.77
2023-03-06T02:42:28.962Z,4.77
2023-03-06T02:43:33.933Z,4.77
2023-03-06T02:44:36.747Z,4.76
2023-03-06T02:45:44.502Z,4.77
2023-03-06T02:46:46.913Z,4.77
2023-03-06T02:47:49.277Z,4.77
2023-03-06T02:48:51.682Z,4.77
2023-03-06T02:49:54.109Z,4.77
2023-03-06T02:50:56.543Z,4.78
2023-03-06T02:51:58.912Z,4.79
2023-03-06T02:53:01.320Z,4.79
2023-03-06T02:54:03.798Z,4.79
2023-03-06T02:55:06.652Z,4.80
2023-03-06T02:56:08.980Z,4.80
2023-03-06T02:57:11.398Z,4.80
2023-03-06T02:58:13.812Z,4.80
2023-03-06T02:59:16.206Z,4.79
2023-03-06T03:00:19.337Z,4.79
2023-03-06T03:01:42.204Z,4.80
2023-03-06T03:03:06.041Z,4.80
2023-03-06T03:04:08.841Z,4.80
2023-03-06T03:05:11.394Z,4.80
2023-03-06T03:06:13.769Z,4.79
2023-03-06T03:07:16.135Z,4.79
2023-03-06T03:08:18.537Z,4.79
2023-03-06T03:09:20.916Z,4.79
2023-03-06T03:10:23.362Z,4.79
2023-03-06T03:11:25.736Z,4.79
2023-03-06T03:12:28.810Z,4.79
2023-03-06T03:13:31.266Z,4.78
2023-03-06T03:14:35.816Z,4.78
2023-03-06T03:15:38.347Z,4.78
2023-03-06T03:16:40.716Z,4.79
2023-03-06T03:17:43.200Z,4.79
2023-03-06T03:18:48.046Z,4.79
2023-03-06T03:19:50.826Z,4.79
2023-03-06T03:20:53.222Z,4.79
2023-03-06T03:21:55.645Z,4.78
2023-03-06T03:22:58.067Z,4.78
2023-03-06T03:24:00.434Z,4.78
2023-03-06T03:25:04.108Z,4.78
2023-03-06T03:26:20.549Z,4.78
2023-03-06T03:27:23.014Z,4.78
2023-03-06T03:28:25.349Z,4.77
2023-03-06T03:29:27.735Z,4.77
2023-03-06T03:30:30.144Z,4.77
2023-03-06T03:31:33.025Z,4.77
2023-03-06T03:32:35.394Z,4.77
2023-03-06T03:33:38.979Z,4.77
2023-03-06T03:34:41.344Z,4.77
2023-03-06T03:35:43.713Z,4.77
2023-03-06T03:36:46.645Z,4.78
2023-03-06T03:37:49.103Z,4.78
2023-03-06T03:38:51.555Z,4.78
2023-03-06T03:39:54.011Z,4.78
2023-03-06T03:40:56.404Z,4.78
2023-03-06T03:41:58.908Z,4.78
2023-03-06T03:43:01.247Z,4.78
2023-03-06T03:44:03.657Z,4.77
2023-03-06T03:45:06.477Z,4.76
2023-03-06T03:46:08.899Z,4.76
2023-03-06T03:47:11.338Z,4.76
2023-03-06T03:48:13.780Z,4.76
2023-03-06T03:49:16.230Z,4.76
2023-03-06T03:50:19.127Z,4.76
2023-03-06T03:51:22.070Z,4.76
2023-03-06T03:52:24.524Z,4.76
2023-03-06T03:53:26.858Z,4.76
2023-03-06T03:54:29.319Z,4.75
2023-03-06T03:55:31.761Z,4.75
2023-03-06T03:56:34.242Z,4.75
2023-03-06T03:57:36.698Z,4.75
2023-03-06T03:58:39.721Z,4.75
2023-03-06T03:59:42.073Z,4.75
2023-03-06T04:00:44.504Z,4.74
2023-03-06T04:01:47.004Z,4.74
2023-03-06T04:02:49.615Z,4.74
2023-03-06T04:03:52.255Z,4.74
2023-03-06T04:04:54.718Z,4.74
2023-03-06T04:05:58.145Z,4.74
2023-03-06T04:07:00.886Z,4.74
2023-03-06T04:08:03.379Z,4.74
2023-03-06T04:09:05.872Z,4.74
2023-03-06T04:10:10.414Z,4.73
2023-03-06T04:11:12.804Z,4.73
2023-03-06T04:12:15.361Z,4.73
2023-03-06T04:13:21.013Z,4.72
2023-03-06T04:14:23.378Z,4.72
2023-03-06T04:15:25.801Z,4.72
2023-03-06T04:16:28.152Z,4.72
2023-03-06T04:17:30.670Z,4.72
2023-03-06T04:18:33.072Z,4.71
2023-03-06T04:19:35.408Z,4.70
2023-03-06T04:20:37.763Z,4.70
2023-03-06T04:21:40.491Z,4.70
2023-03-06T04:22:42.871Z,4.71
2023-03-06T04:23:45.233Z,4.71
2023-03-06T04:24:49.978Z,4.72
2023-03-06T04:25:52.342Z,4.72
2023-03-06T04:26:54.758Z,4.72
2023-03-06T04:27:57.118Z,4.72
2023-03-06T04:28:59.596Z,4.72
2023-03-06T04:30:01.959Z,4.71
2023-03-06T04:31:04.462Z,4.71
2023-03-06T04:32:07.341Z,4.72
2023-03-06T04:33:09.805Z,4.71
2023-03-06T04:34:12.237Z,4.70
2023-03-06T04:35:14.587Z,4.70
2023-03-06T04:36:29.249Z,4.70
2023-03-06T04:37:31.696Z,4.70
2023-03-06T04:38:34.120Z,4.70
2023-03-06T04:39:36.570Z,4.70
2023-03-06T04:40:39.019Z,4.70
2023-03-06T04:41:42.124Z,4.69
2023-03-06T04:42:45.005Z,4.68
2023-03-06T04:43:47.392Z,4.67
2023-03-06T04:44:49.788Z,4.66
2023-03-06T04:45:52.262Z,4.66
2023-03-06T04:46:54.670Z,4.66
2023-03-06T04:47:57.064Z,4.66
2023-03-06T04:48:59.552Z,4.64
2023-03-06T04:50:02.250Z,4.64
2023-03-06T04:51:04.761Z,4.64
2023-03-06T04:52:07.374Z,4.64
2023-03-06T04:53:11.053Z,4.64
2023-03-06T04:54:13.381Z,4.64
2023-03-06T04:55:16.696Z,4.64
2023-03-06T04:56:19.045Z,4.63
2023-03-06T04:57:22.133Z,4.63
2023-03-06T04:58:25.253Z,4.62
2023-03-06T04:59:27.641Z,4.62
2023-03-06T05:00:33.336Z,4.61
2023-03-06T05:01:35.775Z,4.61
2023-03-06T05:02:38.131Z,4.61
2023-03-06T05:03:40.498Z,4.61
2023-03-06T05:04:43.198Z,4.60
2023-03-06T05:05:46.424Z,4.59
2023-03-06T05:06:49.696Z,4.59
2023-03-06T05:07:52.901Z,4.59
2023-03-06T05:08:55.469Z,4.58
2023-03-06T05:09:57.799Z,4.58
2023-03-06T05:11:01.680Z,4.57
2023-03-06T05:12:04.385Z,4.57
2023-03-06T05:13:06.820Z,4.56
2023-03-06T05:14:09.203Z,4.55
2023-03-06T05:15:12.714Z,4.53
2023-03-06T05:16:15.521Z,4.52
2023-03-06T05:17:17.916Z,4.51
2023-03-06T05:18:21.229Z,4.49
2023-03-06T05:19:23.716Z,4.48
2023-03-06T05:20:26.306Z,4.47
2023-03-06T05:21:28.694Z,4.46
2023-03-06T05:22:31.242Z,4.45
2023-03-06T05:23:36.475Z,4.44
2023-03-06T05:24:38.891Z,4.43
2023-03-06T05:25:42.163Z,4.43
2023-03-06T05:26:44.544Z,4.43
2023-03-06T05:27:47.277Z,4.43
2023-03-06T05:28:49.741Z,4.42
2023-03-06T05:29:52.152Z,4.41
2023-03-06T05:30:54.525Z,4.40
2023-03-06T05:31:56.889Z,4.39
2023-03-06T05:33:00.307Z,4.39
2023-03-06T05:34:02.633Z,4.38
2023-03-06T05:35:05.992Z,4.37
2023-03-06T05:36:09.693Z,4.37
2023-03-06T05:37:12.137Z,4.36
2023-03-06T05:38:16.063Z,4.35
2023-03-06T05:39:18.490Z,4.35
2023-03-06T05:40:21.023Z,4.34
2023-03-06T05:41:23.402Z,4.35
2023-03-06T05:42:28.468Z,4.36
2023-03-06T05:43:30.916Z,4.36
2023-03-06T05:44:35.095Z,4.36
2023-03-06T05:45:38.333Z,4.36
2023-03-06T05:46:40.716Z,4.36
2023-03-06T05:47:43.122Z,4.36
2023-03-06T05:48:46.757Z,4.36
2023-03-06T05:49:49.358Z,4.36
2023-03-06T05:50:58.781Z,4.36
2023-03-06T05:52:04.086Z,4.37
2023-03-06T05:53:06.988Z,4.38
2023-03-06T05:54:09.354Z,4.39
2023-03-06T05:55:12.503Z,4.40
2023-03-06T05:56:14.858Z,4.41
2023-03-06T05:57:19.894Z,4.42
2023-03-06T05:58:22.315Z,4.42
2023-03-06T05:59:28.196Z,4.42
2023-03-06T06:00:30.599Z,4.42
2023-03-06T06:01:32.960Z,4.43
2023-03-06T06:02:35.446Z,4.44
2023-03-06T06:03:38.357Z,4.45
2023-03-06T06:04:40.876Z,4.45
2023-03-06T06:05:43.265Z,4.46
2023-03-06T06:06:45.606Z,4.47
2023-03-06T06:07:47.968Z,4.47
2023-03-06T06:08:50.325Z,4.48
2023-03-06T06:09:53.537Z,4.49
2023-03-06T06:10:55.875Z,4.50
2023-03-06T06:12:01.046Z,4.51
2023-03-06T06:13:03.406Z,4.52
2023-03-06T06:14:05.799Z,4.53
2023-03-06T06:15:08.430Z,4.54
2023-03-06T06:16:13.234Z,4.55
2023-03-06T06:17:16.713Z,4.55
2023-03-06T06:18:19.099Z,4.55
2023-03-06T06:19:22.375Z,4.56
2023-03-06T06:20:25.458Z,4.57
2023-03-06T06:21:27.813Z,4.57
2023-03-06T06:22:30.196Z,4.57
2023-03-06T06:23:32.638Z,4.58
2023-03-06T06:24:35.032Z,4.59
2023-03-06T06:25:40.174Z,4.60
2023-03-06T06:26:44.990Z,4.61
2023-03-06T06:27:47.363Z,4.62
2023-03-06T06:28:49.807Z,4.63
2023-03-06T06:29:52.688Z,4.64
2023-03-06T06:30:55.086Z,4.64
2023-03-06T06:31:57.510Z,4.64
2023-03-06T06:32:59.961Z,4.65
2023-03-06T06:34:03.895Z,4.65
2023-03-06T06:35:06.725Z,4.66
2023-03-06T06:36:17.307Z,4.66
2023-03-06T06:37:19.693Z,4.67
2023-03-06T06:38:22.075Z,4.67
2023-03-06T06:39:25.140Z,4.67
2023-03-06T06:40:28.328Z,4.68
2023-03-06T06:41:50.735Z,4.68
2023-03-06T06:42:53.865Z,4.69
2023-03-06T06:43:59.036Z,4.70
2023-03-06T06:45:01.554Z,4.71
2023-03-06T06:46:32.085Z,4.72
2023-03-06T06:47:27.036Z,4.72
2023-03-06T06:48:29.448Z,4.72
2023-03-06T06:49:32.017Z,4.74
2023-03-06T06:50:34.462Z,4.75
2023-03-06T06:51:37.488Z,4.76
2023-03-06T06:52:40.052Z,4.77
2023-03-06T06:53:42.602Z,4.78
2023-03-06T06:54:45.609Z,4.79
2023-03-06T06:55:48.005Z,4.80
2023-03-06T06:56:50.663Z,4.82
2023-03-06T06:57:53.368Z,4.83
2023-03-06T06:59:06.898Z,4.85
2023-03-06T07:00:18.041Z,4.86
2023-03-06T07:01:20.745Z,4.88
2023-03-06T07:02:23.267Z,4.89
2023-03-06T07:03:25.662Z,4.90
2023-03-06T07:04:28.045Z,4.91
2023-03-06T07:05:30.418Z,4.92
2023-03-06T07:06:32.769Z,4.93
2023-03-06T07:07:37.340Z,4.94
2023-03-06T07:08:39.761Z,4.95
2023-03-06T07:09:42.387Z,4.97
2023-03-06T07:10:44.736Z,4.99
2023-03-06T07:11:47.072Z,5.01
2023-03-06T07:12:49.451Z,5.02
2023-03-06T07:13:51.800Z,5.04
2023-03-06T07:14:54.316Z,5.06
2023-03-06T07:15:56.743Z,5.07
2023-03-06T07:16:59.249Z,5.09
2023-03-06T07:18:01.747Z,5.10
2023-03-06T07:19:04.487Z,5.12
2023-03-06T07:20:08.862Z,5.13
2023-03-06T07:21:11.787Z,5.15
2023-03-06T07:22:14.180Z,5.17
2023-03-06T07:23:16.672Z,5.19
2023-03-06T07:24:19.009Z,5.22
2023-03-06T07:25:21.536Z,5.25
2023-03-06T07:26:24.998Z,5.29
2023-03-06T07:27:27.451Z,5.32
2023-03-06T07:28:35.583Z,5.36
2023-03-06T07:29:43.713Z,5.41
2023-03-06T07:30:46.274Z,5.44
2023-03-06T07:31:48.703Z,5.47
2023-03-06T07:32:56.293Z,5.51
2023-03-06T07:33:58.709Z,5.55
2023-03-06T07:35:19.010Z,5.59
2023-03-06T07:36:24.042Z,5.64
2023-03-06T07:37:26.448Z,5.67
2023-03-06T07:38:28.834Z,5.71
2023-03-06T07:39:31.260Z,5.75
2023-03-06T07:40:33.849Z,5.79
2023-03-06T07:41:36.560Z,5.84
2023-03-06T07:42:38.957Z,5.89
2023-03-06T07:43:41.624Z,5.94
2023-03-06T07:44:44.085Z,5.99
2023-03-06T07:45:47.075Z,6.04
2023-03-06T07:46:49.588Z,6.08
2023-03-06T07:47:52.885Z,6.11
2023-03-06T07:48:55.834Z,6.15
2023-03-06T07:49:59.520Z,6.19
2023-03-06T07:51:06.543Z,6.23
2023-03-06T07:52:09.088Z,6.27
2023-03-06T07:53:11.689Z,6.30
2023-03-06T07:54:14.092Z,6.34
2023-03-06T07:55:16.582Z,6.38
2023-03-06T07:56:21.250Z,6.42
2023-03-06T07:57:23.672Z,6.48
2023-03-06T07:58:26.496Z,6.51
2023-03-06T07:59:28.872Z,6.55
2023-03-06T08:00:31.313Z,6.57
2023-03-06T08:01:33.686Z,6.59
2023-03-06T08:02:36.117Z,6.63
2023-03-06T08:03:38.905Z,6.66
2023-03-06T08:04:42.247Z,6.69
2023-03-06T08:05:44.958Z,6.71
2023-03-06T08:06:47.298Z,6.72
2023-03-06T08:07:49.696Z,6.74
2023-03-06T08:08:53.631Z,6.76
2023-03-06T08:09:56.031Z,6.77
2023-03-06T08:10:58.478Z,6.78
2023-03-06T08:12:01.295Z,6.80
2023-03-06T08:13:04.063Z,6.81
2023-03-06T08:14:06.453Z,6.81
2023-03-06T08:15:11.162Z,6.82
2023-03-06T08:16:13.577Z,6.83
2023-03-06T08:17:15.986Z,6.84
2023-03-06T08:18:18.452Z,6.85
2023-03-06T08:19:20.835Z,6.89
2023-03-06T08:20:23.305Z,6.90
2023-03-06T08:21:27.778Z,6.91
2023-03-06T08:22:30.125Z,6.92
2023-03-06T08:23:33.584Z,6.93
2023-03-06T08:24:36.017Z,6.95
2023-03-06T08:25:38.346Z,6.95
2023-03-06T08:26:40.704Z,6.97
2023-03-06T08:27:43.435Z,6.99
2023-03-06T08:28:46.149Z,7.00
2023-03-06T08:29:48.489Z,7.02
2023-03-06T08:30:50.863Z,7.04
2023-03-06T08:31:53.423Z,7.07
2023-03-06T08:32:55.818Z,7.10
2023-03-06T08:34:00.364Z,7.12
2023-03-06T08:35:06.601Z,7.13
2023-03-06T08:36:09.134Z,7.16
2023-03-06T08:37:11.635Z,7.16
2023-03-06T08:38:14.302Z,7.16
2023-03-06T08:39:16.850Z,7.17
2023-03-06T08:40:19.225Z,7.19
2023-03-06T08:41:21.646Z,7.20
2023-03-06T08:42:24.076Z,7.21
2023-03-06T08:43:26.689Z,7.22
2023-03-06T08:44:29.090Z,7.23
2023-03-06T08:45:31.563Z,7.23
2023-03-06T08:46:35.011Z,7.24
2023-03-06T08:47:37.504Z,7.25
2023-03-06T08:48:40.175Z,7.25
2023-03-06T08:49:42.669Z,7.27
2023-03-06T08:50:45.047Z,7.29
2023-03-06T08:51:47.411Z,7.30
2023-03-06T08:52:49.821Z,7.32
2023-03-06T08:53:52.610Z,7.34
2023-03-06T08:54:55.123Z,7.36
2023-03-06T08:55:57.537Z,7.37
2023-03-06T08:56:59.975Z,7.37
2023-03-06T08:58:02.766Z,7.38
2023-03-06T08:59:06.202Z,7.39
2023-03-06T09:00:10.965Z,7.41
2023-03-06T09:01:28.197Z,7.42
2023-03-06T09:02:30.656Z,7.45
2023-03-06T09:03:33.124Z,7.47
2023-03-06T09:04:35.408Z,7.48
2023-03-06T09:05:40.433Z,7.50
2023-03-06T09:06:45.427Z,7.51
2023-03-06T09:07:47.910Z,7.52
2023-03-06T09:08:55.152Z,7.54
2023-03-06T09:09:57.957Z,7.55
2023-03-06T09:11:00.292Z,7.56
2023-03-06T09:12:02.728Z,7.58
2023-03-06T09:13:05.168Z,7.60
2023-03-06T09:14:07.659Z,7.62
2023-03-06T09:15:10.717Z,7.58
2023-03-06T09:16:13.179Z,7.57
2023-03-06T09:17:15.571Z,7.59
2023-03-06T09:18:18.226Z,7.60
2023-03-06T09:19:20.665Z,7.62
2023-03-06T09:20:23.147Z,7.63
2023-03-06T09:21:27.272Z,7.64
2023-03-06T09:22:29.717Z,7.66
2023-03-06T09:23:32.374Z,7.67
2023-03-06T09:24:34.892Z,7.68
2023-03-06T09:25:37.242Z,7.70
2023-03-06T09:26:46.177Z,7.71
2023-03-06T09:28:01.907Z,7.73
2023-03-06T09:29:08.087Z,7.77
2023-03-06T09:30:14.293Z,7.79
2023-03-06T09:31:19.768Z,7.81
2023-03-06T09:32:22.818Z,7.83
2023-03-06T09:33:25.653Z,7.85
2023-03-06T09:34:28.381Z,7.88
2023-03-06T09:35:30.761Z,7.92
2023-03-06T09:36:42.731Z,7.96
2023-03-06T09:37:52.229Z,8.03
2023-03-06T09:38:55.041Z,8.09
2023-03-06T09:39:59.928Z,8.17
2023-03-06T09:41:14.993Z,8.23
2023-03-06T09:42:19.927Z,8.28
2023-03-06T09:43:28.018Z,8.35
2023-03-06T09:44:32.641Z,8.42
2023-03-06T09:45:37.189Z,8.46
2023-03-06T09:47:04.043Z,8.50
2023-03-06T09:48:13.867Z,8.54
2023-03-06T09:49:38.647Z,8.57
2023-03-06T09:50:46.375Z,8.62
2023-03-06T09:52:30.084Z,8.69
2023-03-06T09:53:56.789Z,8.81
2023-03-06T09:55:05.121Z,8.94
2023-03-06T09:56:18.778Z,9.04
2023-03-06T09:57:31.917Z,9.15
2023-03-06T09:58:42.811Z,9.27
2023-03-06T09:59:48.991Z,9.38
2023-03-06T10:01:07.382Z,9.45
2023-03-06T10:02:12.589Z,9.53
2023-03-06T10:03:25.241Z,9.59
2023-03-06T10:04:38.376Z,9.65
2023-03-06T10:05:47.624Z,9.70
2023-03-06T10:06:51.860Z,9.75
2023-03-06T10:08:02.320Z,9.81
2023-03-06T10:09:12.937Z,9.88
2023-03-06T10:10:21.105Z,9.92
2023-03-06T10:12:03.861Z,9.96
2023-03-06T10:13:25.381Z,10.02
2023-03-06T10:14:49.560Z,10.08
2023-03-06T10:16:07.253Z,10.15
2023-03-06T10:17:17.211Z,10.20
2023-03-06T10:18:19.608Z,10.25
2023-03-06T10:19:22.262Z,10.29
2023-03-06T10:20:45.525Z,10.33
2023-03-06T10:22:23.102Z,10.36
2023-03-06T10:23:53.914Z,10.40
2023-03-06T10:25:20.177Z,10.46
2023-03-06T10:26:28.838Z,10.51
2023-03-06T10:27:47.970Z,10.53
2023-03-06T10:29:11.636Z,10.55
2023-03-06T10:30:46.509Z,10.56
2023-03-06T10:31:57.159Z,10.59
2023-03-06T10:33:17.496Z,10.60
2023-03-06T10:34:27.725Z,10.61
2023-03-06T10:35:56.366Z,10.62
2023-03-06T10:37:06.274Z,10.64
2023-03-06T10:38:21.131Z,10.65
2023-03-06T10:39:23.687Z,10.66
2023-03-06T10:40:34.891Z,10.66
2023-03-06T10:41:38.379Z,10.68
2023-03-06T10:42:40.799Z,10.69
2023-03-06T10:43:45.175Z,10.69
2023-03-06T10:44:47.588Z,10.68
2023-03-06T10:45:52.765Z,10.69
2023-03-06T10:46:56.354Z,10.69
2023-03-06T10:48:14.389Z,10.70
2023-03-06T10:49:22.877Z,10.71
2023-03-06T10:50:28.411Z,10.71
2023-03-06T10:51:31.691Z,10.72
2023-03-06T10:52:35.668Z,10.72
2023-03-06T10:53:49.279Z,10.71
2023-03-06T10:54:51.694Z,10.69
2023-03-06T10:55:57.509Z,10.70
2023-03-06T10:57:31.101Z,10.69
2023-03-06T10:58:33.596Z,10.67
2023-03-06T10:59:53.705Z,10.66
2023-03-06T11:01:02.884Z,10.65
2023-03-06T11:02:37.347Z,10.64
2023-03-06T11:03:39.858Z,10.62
2023-03-06T11:04:47.483Z,10.60
2023-03-06T11:06:30.990Z,10.59
2023-03-06T11:07:35.534Z,10.56
2023-03-06T11:08:38.986Z,10.55
2023-03-06T11:10:19.175Z,10.54
2023-03-06T11:11:36.893Z,10.52
2023-03-06T11:12:41.892Z,10.51
2023-03-06T11:13:56.998Z,10.51
2023-03-06T11:15:14.515Z,10.50
2023-03-06T11:16:20.400Z,10.49
2023-03-06T11:17:32.227Z,10.48
2023-03-06T11:18:38.828Z,10.47
2023-03-06T11:19:41.229Z,10.46
2023-03-06T11:20:54.555Z,10.45
2023-03-06T11:22:07.709Z,10.44
2023-03-06T11:23:33.199Z,10.43
2023-03-06T11:24:40.041Z,10.41
2023-03-06T11:26:05.987Z,10.41
2023-03-06T11:27:34.615Z,10.39
2023-03-06T11:28:44.215Z,10.38
2023-03-06T11:29:49.787Z,10.38
2023-03-06T11:31:08.470Z,10.37
2023-03-06T11:32:22.808Z,10.36
2023-03-06T11:33:34.355Z,10.36
2023-03-06T11:34:48.628Z,10.34
2023-03-06T11:36:15.578Z,10.33
2023-03-06T11:37:43.402Z,10.34
2023-03-06T11:38:49.718Z,10.35
2023-03-06T11:40:12.305Z,10.35
2023-03-06T11:41:42.707Z,10.36
2023-03-06T11:43:07.162Z,10.37
2023-03-06T11:44:30.919Z,10.38
2023-03-06T11:45:45.625Z,10.38
2023-03-06T11:46:51.771Z,10.38
2023-03-06T11:48:15.998Z,10.38
2023-03-06T11:49:57.035Z,10.39
2023-03-06T11:51:18.406Z,10.40
2023-03-06T11:52:37.901Z,10.40
2023-03-06T11:53:43.155Z,10.42
2023-03-06T11:54:49.130Z,10.43
2023-03-06T11:56:18.910Z,10.45
2023-03-06T11:57:49.271Z,10.50
2023-03-06T11:59:04.247Z,10.53
2023-03-06T12:00:15.905Z,10.55
2023-03-06T12:01:32.942Z,10.56
2023-03-06T12:02:58.625Z,10.57
2023-03-06T12:04:30.038Z,10.59
2023-03-06T12:05:41.459Z,10.63
2023-03-06T12:06:59.786Z,10.63
2023-03-06T12:08:25.389Z,10.64
2023-03-06T12:09:42.770Z,10.66
2023-03-06T12:11:20.196Z,10.68
2023-03-06T12:12:47.850Z,10.70
2023-03-06T12:14:13.236Z,10.71
2023-03-06T12:15:52.443Z,10.72
2023-03-06T12:16:58.656Z,10.73
2023-03-06T12:18:03.740Z,10.75
2023-03-06T12:19:41.493Z,10.76
2023-03-06T12:20:46.508Z,10.78
2023-03-06T12:22:02.375Z,10.80
2023-03-06T12:23:15.337Z,10.82
2023-03-06T12:24:53.415Z,10.83
2023-03-06T12:26:05.198Z,10.86
2023-03-06T12:27:19.953Z,10.85
2023-03-06T12:28:26.279Z,10.86
2023-03-06T12:29:50.344Z,10.87
2023-03-06T12:31:06.071Z,10.87
2023-03-06T12:32:11.491Z,10.89
2023-03-06T12:33:36.025Z,10.90
2023-03-06T12:34:45.252Z,10.90
2023-03-06T12:35:57.563Z,10.91
2023-03-06T12:37:21.510Z,10.91
2023-03-06T12:38:47.422Z,10.92
2023-03-06T12:40:38.048Z,10.92
2023-03-06T12:41:43.612Z,10.91
2023-03-06T12:43:18.790Z,10.91
2023-03-06T12:44:27.714Z,10.90
2023-03-06T12:45:52.129Z,10.90
2023-03-06T12:49:12.377Z,10.90
2023-03-06T12:50:28.871Z,10.90
2023-03-06T12:51:32.801Z,10.91
2023-03-06T12:52:35.866Z,10.92
2023-03-06T12:53:40.512Z,10.93
2023-03-06T12:54:43.609Z,10.94
2023-03-06T12:55:47.985Z,10.95
2023-03-06T12:56:51.286Z,10.96
2023-03-06T12:57:54.245Z,10.97
2023-03-06T12:58:58.715Z,10.98
2023-03-06T13:01:15.307Z,11.00
2023-03-06T13:02:23.362Z,11.01
2023-03-06T13:03:28.780Z,11.01
2023-03-06T13:04:41.695Z,11.01
2023-03-06T13:06:17.806Z,11.01
2023-03-06T13:07:47.781Z,11.02
2023-03-06T13:09:04.832Z,11.04
2023-03-06T13:10:27.317Z,11.06
2023-03-06T13:11:43.164Z,11.07
2023-03-06T13:13:05.630Z,11.08
2023-03-06T13:14:54.700Z,11.10
2023-03-06T13:18:00.000Z,11.13
2023-03-06T13:20:51.326Z,11.17
2023-03-06T13:22:56.675Z,11.19
2023-03-06T13:24:23.085Z,11.23
2023-03-06T13:25:33.426Z,11.24
2023-03-06T13:28:54.052Z,11.28
2023-03-06T13:30:21.221Z,11.30
2023-03-06T13:31:46.589Z,11.32
2023-03-06T13:32:53.049Z,11.34
2023-03-06T13:33:59.095Z,11.35
2023-03-06T13:35:01.831Z,11.36
2023-03-06T13:36:32.975Z,11.37
2023-03-06T13:37:35.900Z,11.40
2023-03-06T13:38:40.937Z,11.41
2023-03-06T13:39:55.250Z,11.41
2023-03-06T13:41:25.076Z,11.41
2023-03-06T13:42:47.955Z,11.40
2023-03-06T13:44:19.758Z,11.38
2023-03-06T13:45:30.339Z,11.38
2023-03-06T13:46:35.878Z,11.37
2023-03-06T13:48:06.439Z,11.36
2023-03-06T13:49:09.667Z,11.35
2023-03-06T13:50:30.884Z,11.35
2023-03-06T13:51:42.391Z,11.34
2023-03-06T13:53:26.057Z,11.33
2023-03-06T13:55:06.356Z,11.31
2023-03-06T13:56:48.152Z,11.30
2023-03-06T13:58:22.590Z,11.29
2023-03-06T13:59:47.187Z,11.29
2023-03-06T14:01:10.601Z,11.27
2023-03-06T14:02:29.381Z,11.26
2023-03-06T14:04:26.012Z,11.26
2023-03-06T14:05:47.870Z,11.24
2023-03-06T14:06:53.937Z,11.23
2023-03-06T14:08:16.076Z,11.20
2023-03-06T14:09:37.575Z,11.19
2023-03-06T14:10:40.941Z,11.18
2023-03-06T14:11:52.496Z,11.17
2023-03-06T14:13:02.042Z,11.18
2023-03-06T14:14:04.381Z,11.18
2023-03-06T14:15:12.503Z,11.18
2023-03-06T14:16:49.320Z,11.19
2023-03-06T14:18:24.934Z,11.19
2023-03-06T14:19:31.973Z,11.16
2023-03-06T14:20:42.351Z,11.16
2023-03-06T14:21:44.651Z,11.15
2023-03-06T14:22:47.091Z,11.15
2023-03-06T14:24:00.311Z,11.14
2023-03-06T14:25:14.159Z,11.13
2023-03-06T14:26:20.993Z,11.12
2023-03-06T14:27:48.123Z,11.11
2023-03-06T14:28:53.301Z,11.11
2023-03-06T14:30:06.787Z,11.09
2023-03-06T14:31:18.915Z,11.08
2023-03-06T14:34:40.963Z,11.07
2023-03-06T14:35:51.993Z,11.07
2023-03-06T14:37:00.447Z,11.05
2023-03-06T14:38:06.637Z,11.03
2023-03-06T14:39:17.177Z,11.02
2023-03-06T14:40:26.794Z,11.01
2023-03-06T14:41:32.151Z,11.00
2023-03-06T14:42:34.590Z,10.99
2023-03-06T14:43:36.933Z,10.98
2023-03-06T14:44:39.247Z,10.97
2023-03-06T14:45:54.095Z,10.95
2023-03-06T14:46:59.074Z,10.94
2023-03-06T14:48:01.633Z,10.93
2023-03-06T14:49:07.751Z,10.92
2023-03-06T14:50:25.573Z,10.91
2023-03-06T14:51:28.355Z,10.88
2023-03-06T14:52:30.839Z,10.86
2023-03-06T14:53:33.837Z,10.83
2023-03-06T14:54:39.434Z,10.81
2023-03-06T14:55:50.404Z,10.79
2023-03-06T14:56:58.543Z,10.77
2023-03-06T14:58:21.322Z,10.75
2023-03-06T14:59:29.197Z,10.72
2023-03-06T15:00:39.082Z,10.70